Alsville, South Dakota
Current Conditions -  °F | °C
As of 4:12 AM on Wednesday 26 Nov 2014 (Local Time) from KATY Reporting Station
Light Snow Light Snow  
Wind Chill:   Ceiling: 3000
Heat Index: 20°   Visibility: 3mi
Dew Point: 16°   Wind: 25mph
Humidity: 85%   Direction: 20°NNE
Pressure: 29.99"   Gusts: 35mph
Location:  44.5892°N, 97.2322°W
Report Text: KATY 261012Z AUTO 02022G30KT 3SM -SN BR FEW009 OVC030 M07/M09 A2999 RMK AO2 PK WND 02030/1009 P0000 T10671089
Loading
Personal Weather Stations






























Interactive Weather Map New forecast layout! Learn more

10-Day Weather Forecast

Advertisements
Track Severe Weather on mobile